Blue Springs, Nebraska
Current Conditions -  °F | °C
As of 12:15 PM on Thursday 30 Oct 2014 (Local Time) from KBIE Reporting Station
Clear Clear  
Wind Chill: 61°   Ceiling: Unl
Heat Index: 61°   Visibility: 10mi
Dew Point: 41°   Wind: 20mph
Humidity: 48%   Direction: 330°NNW
Pressure: 30.11"   Gusts: 25mph
Location:  40.14°N, 96.66°W
Report Text: KBIE 301715Z AUTO 33017G22KT 10SM CLR 16/05 A3011 RMK AO2 T01610051
Loading
Personal Weather Stations






























Interactive Weather Map
Tropical Storm Tracking
New forecast layout! Learn more

10-Day Weather Forecast

Advertisements
Track Severe Weather on mobile